createdAt,value
2022-08-27T00:01:25.521Z,100267.88
2022-08-27T00:03:55.166Z,100275.78
2022-08-27T00:06:22.443Z,100268.00
2022-08-27T00:08:50.218Z,100274.59
2022-08-27T00:11:18.290Z,100265.88
2022-08-27T00:13:45.423Z,100269.75
2022-08-27T00:16:14.890Z,100270.59
2022-08-27T00:18:44.146Z,100273.81
2022-08-27T00:21:15.414Z,100263.13
2022-08-27T00:23:42.053Z,100263.13
2022-08-27T00:26:08.730Z,100265.88
2022-08-27T00:28:35.438Z,100263.47
2022-08-27T00:31:02.410Z,100268.13
2022-08-27T00:33:30.601Z,100267.63
2022-08-27T00:35:57.582Z,100273.94
2022-08-27T00:38:24.134Z,100277.50
2022-08-27T00:40:51.507Z,100273.63
2022-08-27T00:43:34.442Z,100275.47
2022-08-27T00:46:11.210Z,100283.22
2022-08-27T00:48:37.643Z,100279.09
2022-08-27T00:51:05.846Z,100271.94
2022-08-27T00:53:33.539Z,100281.28
2022-08-27T00:56:22.300Z,100283.03
2022-08-27T00:58:52.061Z,100273.72
2022-08-27T01:01:23.781Z,100279.09
2022-08-27T01:03:54.295Z,100283.47
2022-08-27T01:06:23.389Z,100288.66
2022-08-27T01:08:57.879Z,100288.75
2022-08-27T01:11:25.348Z,100293.69
2022-08-27T01:14:00.210Z,100286.47
2022-08-27T01:16:33.712Z,100288.50
2022-08-27T01:19:00.973Z,100293.16
2022-08-27T01:22:04.744Z,100296.06
2022-08-27T01:24:36.074Z,100293.53
2022-08-27T01:27:04.876Z,100292.09
2022-08-27T01:29:35.103Z,100301.16
2022-08-27T01:32:11.460Z,100292.97
2022-08-27T01:34:38.549Z,100297.75
2022-08-27T01:37:06.686Z,100302.47
2022-08-27T01:39:39.624Z,100296.19
2022-08-27T01:42:10.644Z,100302.00
2022-08-27T01:44:47.849Z,100304.31
2022-08-27T01:47:15.380Z,100301.22
2022-08-27T01:49:41.924Z,100306.72
2022-08-27T01:52:09.004Z,100311.38
2022-08-27T01:54:35.563Z,100316.06
2022-08-27T01:57:02.200Z,100321.06
2022-08-27T01:59:39.372Z,100320.56
2022-08-27T02:02:08.735Z,100323.44
2022-08-27T02:04:36.353Z,100316.13
2022-08-27T02:07:03.543Z,100320.63
2022-08-27T02:09:30.200Z,100318.31
2022-08-27T02:11:57.049Z,100314.56
2022-08-27T02:14:23.661Z,100320.16
2022-08-27T02:16:52.727Z,100330.69
2022-08-27T02:19:20.224Z,100333.22
2022-08-27T02:21:47.099Z,100335.16
2022-08-27T02:24:14.022Z,100322.56
2022-08-27T02:26:40.564Z,100328.84
2022-08-27T02:29:07.729Z,100324.47
2022-08-27T02:31:34.413Z,100326.41
2022-08-27T02:34:01.615Z,100323.69
2022-08-27T02:36:28.389Z,100314.31
2022-08-27T02:38:55.509Z,100309.94
2022-08-27T02:41:22.857Z,100312.38
2022-08-27T02:43:49.411Z,100313.19
2022-08-27T02:46:16.976Z,100306.56
2022-08-27T02:48:44.413Z,100312.38
2022-08-27T02:51:10.982Z,100313.00
2022-08-27T02:53:38.100Z,100320.72
2022-08-27T02:56:06.424Z,100312.81
2022-08-27T02:58:33.752Z,100311.81
2022-08-27T03:01:04.746Z,100311.19
2022-08-27T03:03:31.597Z,100314.66
2022-08-27T03:05:59.136Z,100315.31
2022-08-27T03:08:27.015Z,100321.44
2022-08-27T03:10:56.770Z,100317.38
2022-08-27T03:13:25.920Z,100322.03
2022-08-27T03:15:53.616Z,100320.41
2022-08-27T03:18:21.860Z,100316.53
2022-08-27T03:20:51.628Z,100314.78
2022-08-27T03:23:22.517Z,100318.38
2022-08-27T03:25:52.634Z,100318.38
2022-08-27T03:28:25.932Z,100318.53
2022-08-27T03:30:58.386Z,100320.59
2022-08-27T03:33:26.266Z,100318.47
2022-08-27T03:35:53.074Z,100317.97
2022-08-27T03:38:20.098Z,100315.53
2022-08-27T03:40:47.134Z,100314.53
2022-08-27T03:43:15.084Z,100319.03
2022-08-27T03:46:00.413Z,100314.06
2022-08-27T03:48:29.348Z,100314.16
2022-08-27T03:50:55.965Z,100322.19
2022-08-27T03:53:22.555Z,100317.03
2022-08-27T03:55:49.651Z,100325.56
2022-08-27T03:58:16.941Z,100317.63
2022-08-27T04:00:43.967Z,100323.09
2022-08-27T04:03:13.336Z,100324.94
2022-08-27T04:05:40.278Z,100319.44
2022-08-27T04:08:07.038Z,100312.53
2022-08-27T04:10:34.960Z,100311.91
2022-08-27T04:13:01.626Z,100310.78
2022-08-27T04:15:28.131Z,100313.53
2022-08-27T04:17:54.628Z,100320.66
2022-08-27T04:20:36.599Z,100317.06
2022-08-27T04:23:04.081Z,100308.03
2022-08-27T04:25:31.295Z,100318.41
2022-08-27T04:27:58.725Z,100320.03
2022-08-27T04:30:25.307Z,100319.41
2022-08-27T04:32:51.818Z,100324.28
2022-08-27T04:35:18.440Z,100323.66
2022-08-27T04:37:45.017Z,100326.41
2022-08-27T04:40:11.736Z,100320.41
2022-08-27T04:42:38.559Z,100332.53
2022-08-27T04:45:05.745Z,100338.31
2022-08-27T04:47:33.242Z,100339.75
2022-08-27T04:49:59.766Z,100342.78
2022-08-27T04:52:26.825Z,100332.44
2022-08-27T04:54:53.358Z,100343.72
2022-08-27T04:57:20.701Z,100352.59
2022-08-27T04:59:47.277Z,100351.28
2022-08-27T05:02:14.070Z,100340.09
2022-08-27T05:04:41.090Z,100345.69
2022-08-27T05:07:09.406Z,100341.63
2022-08-27T05:09:36.252Z,100352.34
2022-08-27T05:12:03.424Z,100350.25
2022-08-27T05:14:30.469Z,100349.22
2022-08-27T05:16:59.148Z,100347.13
2022-08-27T05:19:26.254Z,100349.34
2022-08-27T05:21:53.910Z,100345.28
2022-08-27T05:24:21.723Z,100355.75
2022-08-27T05:26:49.026Z,100352.81
2022-08-27T05:29:16.145Z,100347.94
2022-08-27T05:31:42.921Z,100346.09
2022-08-27T05:34:15.309Z,100353.63
2022-08-27T05:36:49.315Z,100350.97
2022-08-27T05:39:17.011Z,100347.31
2022-08-27T05:41:43.860Z,100352.09
2022-08-27T05:44:37.293Z,100345.59
2022-08-27T05:46:57.460Z,100345.59
2022-08-27T05:49:23.982Z,100352.81
2022-08-27T05:51:50.561Z,100347.13
2022-08-27T05:54:19.885Z,100347.13
2022-08-27T05:56:49.910Z,100347.91
2022-08-27T05:59:35.313Z,100345.44
2022-08-27T06:02:04.124Z,100349.53
2022-08-27T06:04:30.598Z,100345.44
2022-08-27T06:06:57.453Z,100349.91
2022-08-27T06:09:26.881Z,100348.28
2022-08-27T06:11:54.521Z,100344.03
2022-08-27T06:14:21.312Z,100354.47
2022-08-27T06:16:48.736Z,100355.56
2022-08-27T06:19:15.427Z,100355.88
2022-08-27T06:21:42.517Z,100358.63
2022-08-27T06:24:12.279Z,100367.16
2022-08-27T06:26:40.619Z,100367.16
2022-08-27T06:29:08.622Z,100367.94
2022-08-27T06:31:35.693Z,100365.53
2022-08-27T06:34:07.215Z,100364.72
2022-08-27T06:36:37.771Z,100374.25
2022-08-27T06:39:05.655Z,100366.13
2022-08-27T06:41:33.691Z,100368.88
2022-08-27T06:44:00.178Z,100364.50
2022-08-27T06:46:29.481Z,100369.19
2022-08-27T06:48:58.985Z,100372.22
2022-08-27T06:51:29.808Z,100366.75
2022-08-27T06:54:00.934Z,100373.31
2022-08-27T06:56:28.518Z,100363.25
2022-08-27T06:58:57.728Z,100375.06
2022-08-27T07:01:30.167Z,100375.84
2022-08-27T07:03:59.839Z,100386.81
2022-08-27T07:06:29.354Z,100384.38
2022-08-27T07:08:57.165Z,100382.75
2022-08-27T07:11:24.946Z,100375.06
2022-08-27T07:13:52.566Z,100382.16
2022-08-27T07:16:23.281Z,100385.94
2022-08-27T07:18:52.006Z,100380.75
2022-08-27T07:21:22.536Z,100379.91
2022-08-27T07:23:51.609Z,100385.41
2022-08-27T07:26:19.462Z,100386.59
2022-08-27T07:28:46.895Z,100389.13
2022-08-27T07:31:17.179Z,100391.66
2022-08-27T07:33:50.783Z,100391.22
2022-08-27T07:36:20.062Z,100390.72
2022-08-27T07:38:56.579Z,100398.69
2022-08-27T07:41:31.100Z,100394.63
2022-08-27T07:44:20.171Z,100393.53
2022-08-27T07:46:49.065Z,100401.31
2022-08-27T07:49:19.540Z,100390.94
2022-08-27T07:51:46.148Z,100395.91
2022-08-27T07:54:12.838Z,100397.03
2022-08-27T07:56:39.392Z,100395.97
2022-08-27T07:59:06.064Z,100399.81
2022-08-27T08:01:32.932Z,100408.31
2022-08-27T08:03:59.544Z,100407.50
2022-08-27T08:06:26.176Z,100407.50
2022-08-27T08:08:52.785Z,100398.19
2022-08-27T08:11:20.408Z,100410.75
